Apostolos A — 9HKR6 — position and weather

sailwx.info

Track history (hours):
 
Tides and Currents Weather Stations Pressure Air Temp Water Temp Dewpoint Dewpoint Depression Visibility Wind Speed Wind Dir Waves Ship Positions

Apostolos A

Last reported at 2015-Mar-30 12:28 UTC. Time now 2015-Mar-31 15:30 UTC.
Position N 43°36' E 009°20'.

Length 182 m; draft 8.2 m.

Type: Tanker. MMSI: 248594000.

Date/timePositionNaut miles runAvg speedWind from/ knotsBaromVisibWave heightAir tempDewpointWater temp
2015-Mar-30 12:28N 43°36' E 009°20'1112.4
2015-Mar-30 11:33N 43°46' E 009°14'1413.1
2015-Mar-30 10:30N 43°59' E 009°06'2613.0
2015-Mar-30 08:31N 44°20' E 008°46'4 0.1
2015-Mar-28 05:33N 44°25' E 008°48'6 5.5
2015-Mar-28 04:33N 44°19' E 008°50'21 9.3
2015-Mar-28 02:15N 44°01' E 009°05'3 4.2
2015-Mar-28 01:33N 43°58' E 009°07'0 0.4
2015-Mar-28 00:13N 43°59' E 009°08'0 0.3
2015-Mar-27 23:33N 43°59' E 009°08'0 0.3
2015-Mar-27 22:32N 43°59' E 009°08'0 0.4
2015-Mar-27 21:32N 43°59' E 009°08'1 0.7
2015-Mar-27 20:32N 43°60' E 009°09'1 0.8
2015-Mar-27 19:33N 44°01' E 009°09'1 0.7
2015-Mar-27 18:29N 44°01' E 009°09'1 0.8
2015-Mar-27 17:22N 44°02' E 009°08'1 1.1
2015-Mar-27 16:33N 44°03' E 009°08'1 1.1
2015-Mar-27 15:32N 44°04' E 009°07'1 1.1
2015-Mar-27 14:30N 44°05' E 009°07'1 0.9
2015-Mar-27 13:31N 44°06' E 009°07'13 0.5
2015-Mar-26 12:28N 44°15' E 008°54'18 2.6
2015-Mar-26 05:18N 43°57' E 008°52'0 0.6
2015-Mar-26 04:33N 43°57' E 008°52'1 0.6
2015-Mar-26 03:33N 43°58' E 008°53'1 0.5
2015-Mar-26 02:32N 43°58' E 008°53'1 0.7
2015-Mar-26 01:33N 43°59' E 008°53'1 0.8
2015-Mar-26 00:33N 43°60' E 008°53'1 0.8
2015-Mar-25 23:33N 44°01' E 008°54'1 0.8
2015-Mar-25 22:30N 44°01' E 008°54'1 0.7
2015-Mar-25 21:31N 44°02' E 008°54'1 0.6
2015-Mar-25 20:26N 44°02' E 008°55'0 0.5
2015-Mar-25 19:33N 44°03' E 008°55'0 0.4
2015-Mar-25 18:33N 44°03' E 008°55'0 0.3
2015-Mar-25 17:33N 44°04' E 008°55'9 0.4
2015-Mar-24 19:29N 44°04' E 008°42'2 1.2
2015-Mar-24 18:06N 44°05' E 008°44'1 1.1
2015-Mar-24 17:23N 44°06' E 008°45'2 1.1
2015-Mar-24 16:04N 44°07' E 008°46'11 0.3
2015-Mar-23 01:13N 43°57' E 008°40'24 0.8
2015-Mar-21 17:28N 44°20' E 008°50'2211.3
2015-Mar-21 15:33N 44°02' E 009°05'1212.1
2015-Mar-21 14:34N 43°51' E 009°13'1312.2
2015-Mar-21 13:32N 43°39' E 009°18'1212.1
2015-Mar-21 12:33N 43°28' E 009°23'  
Track history (hours):
 
Tides and Currents Weather Stations Pressure Air Temp Water Temp Dewpoint Dewpoint Depression Visibility Wind Speed Wind Dir Waves Ship Positions

Apostolos A

Last reported at 2015-Mar-30 12:28 UTC. Time now 2015-Mar-31 15:30 UTC.
Position N 43°36' E 009°20'.

Length 182 m; draft 8.2 m.

Type: Tanker. MMSI: 248594000.

Date/timePositionNaut miles runAvg speedWind from/ knotsBaromVisibWave heightAir tempDewpointWater temp
2015-Mar-30 12:28N 43°36' E 009°20'1112.4
2015-Mar-30 11:33N 43°46' E 009°14'1413.1
2015-Mar-30 10:30N 43°59' E 009°06'2613.0
2015-Mar-30 08:31N 44°20' E 008°46'4 0.1
2015-Mar-28 05:33N 44°25' E 008°48'6 5.5
2015-Mar-28 04:33N 44°19' E 008°50'21 9.3
2015-Mar-28 02:15N 44°01' E 009°05'3 4.2
2015-Mar-28 01:33N 43°58' E 009°07'0 0.4
2015-Mar-28 00:13N 43°59' E 009°08'0 0.3
2015-Mar-27 23:33N 43°59' E 009°08'0 0.3
2015-Mar-27 22:32N 43°59' E 009°08'0 0.4
2015-Mar-27 21:32N 43°59' E 009°08'1 0.7
2015-Mar-27 20:32N 43°60' E 009°09'1 0.8
2015-Mar-27 19:33N 44°01' E 009°09'1 0.7
2015-Mar-27 18:29N 44°01' E 009°09'1 0.8
2015-Mar-27 17:22N 44°02' E 009°08'1 1.1
2015-Mar-27 16:33N 44°03' E 009°08'1 1.1
2015-Mar-27 15:32N 44°04' E 009°07'1 1.1
2015-Mar-27 14:30N 44°05' E 009°07'1 0.9
2015-Mar-27 13:31N 44°06' E 009°07'13 0.5
2015-Mar-26 12:28N 44°15' E 008°54'18 2.6
2015-Mar-26 05:18N 43°57' E 008°52'0 0.6
2015-Mar-26 04:33N 43°57' E 008°52'1 0.6
2015-Mar-26 03:33N 43°58' E 008°53'1 0.5
2015-Mar-26 02:32N 43°58' E 008°53'1 0.7
2015-Mar-26 01:33N 43°59' E 008°53'1 0.8
2015-Mar-26 00:33N 43°60' E 008°53'1 0.8
2015-Mar-25 23:33N 44°01' E 008°54'1 0.8
2015-Mar-25 22:30N 44°01' E 008°54'1 0.7
2015-Mar-25 21:31N 44°02' E 008°54'1 0.6
2015-Mar-25 20:26N 44°02' E 008°55'0 0.5
2015-Mar-25 19:33N 44°03' E 008°55'0 0.4
2015-Mar-25 18:33N 44°03' E 008°55'0 0.3
2015-Mar-25 17:33N 44°04' E 008°55'9 0.4
2015-Mar-24 19:29N 44°04' E 008°42'2 1.2
2015-Mar-24 18:06N 44°05' E 008°44'1 1.1
2015-Mar-24 17:23N 44°06' E 008°45'2 1.1
2015-Mar-24 16:04N 44°07' E 008°46'11 0.3
2015-Mar-23 01:13N 43°57' E 008°40'24 0.8
2015-Mar-21 17:28N 44°20' E 008°50'2211.3
2015-Mar-21 15:33N 44°02' E 009°05'1212.1
2015-Mar-21 14:34N 43°51' E 009°13'1312.2
2015-Mar-21 13:32N 43°39' E 009°18'1212.1
2015-Mar-21 12:33N 43°28' E 009°23'  

Dump ship's entire track history